createdAt,value
2018-10-06T00:02:04.481Z,11.10
2018-10-06T00:04:32.817Z,11.00
2018-10-06T00:07:01.059Z,11.10
2018-10-06T00:09:29.461Z,11.00
2018-10-06T00:11:57.645Z,11.00
2018-10-06T00:14:25.848Z,11.00
2018-10-06T00:16:54.235Z,11.00
2018-10-06T00:19:22.522Z,10.90
2018-10-06T00:21:50.744Z,11.00
2018-10-06T00:24:19.269Z,10.90
2018-10-06T00:26:47.602Z,10.90
2018-10-06T00:29:15.841Z,10.90
2018-10-06T00:31:44.064Z,10.90
2018-10-06T00:34:12.295Z,10.90
2018-10-06T00:36:40.581Z,10.90
2018-10-06T00:39:08.845Z,10.90
2018-10-06T00:41:37.121Z,10.80
2018-10-06T00:44:05.620Z,10.80
2018-10-06T00:46:33.858Z,10.70
2018-10-06T00:49:02.191Z,10.70
2018-10-06T00:51:30.661Z,10.80
2018-10-06T00:53:58.961Z,10.70
2018-10-06T00:56:27.196Z,10.70
2018-10-06T00:58:55.464Z,10.70
2018-10-06T01:01:23.714Z,10.70
2018-10-06T01:03:51.942Z,10.70
2018-10-06T01:06:20.193Z,10.60
2018-10-06T01:08:48.812Z,10.60
2018-10-06T01:11:17.057Z,10.60
2018-10-06T01:13:45.407Z,10.60
2018-10-06T01:16:13.579Z,10.60
2018-10-06T01:18:41.830Z,10.60
2018-10-06T01:21:10.179Z,10.60
2018-10-06T01:23:38.526Z,10.50
2018-10-06T01:26:06.973Z,10.50
2018-10-06T01:28:35.513Z,10.40
2018-10-06T01:31:03.739Z,10.40
2018-10-06T01:33:32.043Z,10.40
2018-10-06T01:36:00.441Z,10.40
2018-10-06T01:38:28.860Z,10.40
2018-10-06T01:40:57.256Z,10.30
2018-10-06T01:43:25.510Z,10.30
2018-10-06T01:45:53.736Z,10.30
2018-10-06T01:48:21.906Z,10.30
2018-10-06T01:50:50.464Z,10.30
2018-10-06T01:53:18.747Z,10.20
2018-10-06T01:55:46.977Z,10.10
2018-10-06T01:58:15.184Z,10.10
2018-10-06T02:00:43.701Z,10.10
2018-10-06T02:03:12.000Z,10.10
2018-10-06T02:05:40.318Z,10.00
2018-10-06T02:08:08.560Z,9.90
2018-10-06T02:10:37.012Z,10.00
2018-10-06T02:13:05.305Z,9.90
2018-10-06T02:15:33.545Z,9.90
2018-10-06T02:18:01.854Z,9.90
2018-10-06T02:20:30.321Z,10.00
2018-10-06T02:22:58.591Z,10.10
2018-10-06T02:25:27.051Z,10.10
2018-10-06T02:27:55.349Z,10.00
2018-10-06T02:30:23.662Z,10.00
2018-10-06T02:32:51.941Z,9.90
2018-10-06T02:35:20.216Z,9.90
2018-10-06T02:37:48.591Z,9.80
2018-10-06T02:40:16.802Z,9.80
2018-10-06T02:42:45.038Z,9.80
2018-10-06T02:45:13.390Z,9.80
2018-10-06T02:47:41.878Z,9.80
2018-10-06T02:50:10.164Z,9.80
2018-10-06T02:52:38.430Z,9.80
2018-10-06T02:55:06.659Z,9.80
2018-10-06T02:57:34.840Z,9.70
2018-10-06T03:00:03.041Z,9.70
2018-10-06T03:02:31.225Z,9.70
2018-10-06T03:04:59.497Z,9.70
2018-10-06T03:07:27.776Z,9.80
2018-10-06T03:09:56.128Z,9.70
2018-10-06T03:12:24.328Z,9.70
2018-10-06T03:14:52.526Z,9.60
2018-10-06T03:17:20.717Z,9.50
2018-10-06T03:19:48.969Z,9.50
2018-10-06T03:22:17.167Z,9.50
2018-10-06T03:24:45.362Z,9.40
2018-10-06T03:27:13.605Z,9.40
2018-10-06T03:29:41.879Z,9.40
2018-10-06T03:32:10.268Z,9.40
2018-10-06T03:34:38.505Z,9.40
2018-10-06T03:37:06.728Z,9.30
2018-10-06T03:39:34.956Z,9.30
2018-10-06T03:42:03.232Z,9.30
2018-10-06T03:44:31.475Z,9.30
2018-10-06T03:46:59.701Z,9.20
2018-10-06T03:49:27.972Z,9.20
2018-10-06T03:51:56.225Z,9.10
2018-10-06T03:54:24.558Z,9.20
2018-10-06T03:56:52.777Z,9.20
2018-10-06T03:59:21.031Z,9.20
2018-10-06T04:01:49.329Z,9.20
2018-10-06T04:04:17.549Z,9.10
2018-10-06T04:06:45.734Z,9.10
2018-10-06T04:09:13.938Z,9.10
2018-10-06T04:11:42.169Z,9.10
2018-10-06T04:14:10.393Z,9.10
2018-10-06T04:16:38.609Z,9.10
2018-10-06T04:19:06.836Z,9.00
2018-10-06T04:21:49.560Z,9.00
2018-10-06T04:24:18.689Z,9.00
2018-10-06T04:26:47.026Z,9.00
2018-10-06T04:29:15.182Z,9.00
2018-10-06T04:31:43.375Z,8.90
2018-10-06T04:34:11.777Z,9.00
2018-10-06T04:36:40.065Z,9.00
2018-10-06T04:39:09.533Z,9.00
2018-10-06T04:41:37.800Z,8.90
2018-10-06T04:44:06.308Z,8.90
2018-10-06T04:46:34.735Z,8.90
2018-10-06T04:49:02.949Z,8.90
2018-10-06T04:51:31.157Z,8.90
2018-10-06T04:53:59.555Z,8.80
2018-10-06T04:56:27.885Z,8.90
2018-10-06T04:58:56.090Z,8.90
2018-10-06T05:01:24.281Z,8.80
2018-10-06T05:03:52.817Z,8.80
2018-10-06T05:06:21.033Z,8.70
2018-10-06T05:08:49.301Z,8.70
2018-10-06T05:11:19.228Z,8.80
2018-10-06T05:13:47.524Z,8.70
2018-10-06T05:16:15.887Z,8.70
2018-10-06T05:18:44.119Z,8.70
2018-10-06T05:21:12.322Z,8.70
2018-10-06T05:23:40.630Z,8.70
2018-10-06T05:26:08.853Z,8.70
2018-10-06T05:28:37.130Z,8.70
2018-10-06T05:31:05.546Z,8.70
2018-10-06T05:33:33.832Z,8.60
2018-10-06T05:36:02.517Z,8.70
2018-10-06T05:38:30.744Z,8.70
2018-10-06T05:40:59.322Z,8.60
2018-10-06T05:43:27.542Z,8.60
2018-10-06T05:45:55.828Z,8.70
2018-10-06T05:48:24.054Z,8.70
2018-10-06T05:50:52.474Z,8.80
2018-10-06T05:53:20.801Z,8.80
2018-10-06T05:55:49.063Z,8.80
2018-10-06T05:58:17.316Z,8.70
2018-10-06T06:00:45.583Z,8.80
2018-10-06T06:03:16.005Z,8.80
2018-10-06T06:05:46.397Z,8.70
2018-10-06T06:08:18.568Z,8.80
2018-10-06T06:10:50.907Z,8.90
2018-10-06T06:13:21.546Z,9.00
2018-10-06T06:15:49.838Z,8.90
2018-10-06T06:18:18.110Z,8.90
2018-10-06T06:20:46.636Z,9.00
2018-10-06T06:23:15.454Z,9.00
2018-10-06T06:25:44.166Z,9.00
2018-10-06T06:28:12.783Z,9.10
2018-10-06T06:30:41.693Z,9.10
2018-10-06T06:33:10.513Z,9.10
2018-10-06T06:35:39.189Z,9.10
2018-10-06T06:38:08.518Z,9.10
2018-10-06T06:40:37.422Z,9.10
2018-10-06T06:43:06.164Z,9.10
2018-10-06T06:45:34.384Z,9.20
2018-10-06T06:48:02.715Z,9.40
2018-10-06T06:50:31.005Z,9.50
2018-10-06T06:52:59.299Z,9.50
2018-10-06T06:55:27.637Z,9.60
2018-10-06T06:57:56.027Z,9.60
2018-10-06T07:00:24.249Z,9.70
2018-10-06T07:02:54.342Z,9.80
2018-10-06T07:05:31.383Z,9.80
2018-10-06T07:08:00.624Z,9.90
2018-10-06T07:10:32.669Z,9.90
2018-10-06T07:13:00.996Z,9.90
2018-10-06T07:15:29.297Z,10.00
2018-10-06T07:17:57.565Z,10.10
2018-10-06T07:20:25.897Z,10.20
2018-10-06T07:22:54.098Z,10.30
2018-10-06T07:25:22.409Z,10.40
2018-10-06T07:27:51.177Z,10.50
2018-10-06T07:30:19.421Z,10.60
2018-10-06T07:32:47.664Z,10.60
2018-10-06T07:35:15.916Z,10.70
2018-10-06T07:37:44.453Z,10.80
2018-10-06T07:40:12.664Z,10.90
2018-10-06T07:42:41.883Z,11.00
2018-10-06T07:45:10.227Z,11.10
2018-10-06T07:47:38.953Z,11.20
2018-10-06T07:50:07.266Z,11.30
2018-10-06T07:52:35.526Z,11.40
2018-10-06T07:55:04.104Z,11.50
2018-10-06T07:57:32.783Z,11.60
2018-10-06T08:00:01.156Z,11.70
2018-10-06T08:02:29.543Z,11.80
2018-10-06T08:04:57.816Z,11.90
2018-10-06T08:07:26.421Z,12.00
2018-10-06T08:09:54.793Z,12.00
2018-10-06T08:12:23.012Z,12.10
2018-10-06T08:14:51.501Z,12.20
2018-10-06T08:17:20.120Z,12.30
2018-10-06T08:19:49.615Z,12.40
2018-10-06T08:22:18.110Z,12.50
2018-10-06T08:24:46.398Z,12.60
2018-10-06T08:27:15.779Z,12.70
2018-10-06T08:29:44.121Z,12.80
2018-10-06T08:32:23.845Z,12.90
2018-10-06T08:34:52.708Z,13.00
2018-10-06T08:37:22.761Z,13.00
2018-10-06T08:40:03.133Z,13.10
2018-10-06T08:42:32.446Z,13.20
2018-10-06T08:47:54.329Z,13.40
2018-10-06T08:50:35.432Z,13.40
2018-10-06T08:53:04.560Z,13.50
2018-10-06T08:55:37.607Z,13.50
2018-10-06T08:58:14.387Z,13.60
2018-10-06T09:00:53.119Z,13.80
2018-10-06T09:03:27.601Z,13.90
2018-10-06T09:06:14.018Z,14.00
2018-10-06T09:08:44.863Z,14.00
2018-10-06T09:35:29.717Z,14.10
2018-10-06T09:38:09.154Z,14.90
2018-10-06T09:40:37.459Z,15.00
2018-10-06T09:46:26.406Z,15.20
2018-10-06T09:49:05.350Z,15.30
2018-10-06T09:51:56.457Z,15.40
2018-10-06T09:54:32.188Z,15.50
2018-10-06T09:57:03.462Z,15.70
2018-10-06T10:25:27.004Z,15.80
2018-10-06T10:27:55.253Z,16.60
2018-10-06T10:30:23.607Z,16.70
2018-10-06T10:32:51.937Z,16.80
2018-10-06T10:35:20.191Z,17.00
2018-10-06T10:37:49.222Z,17.00
2018-10-06T10:40:17.495Z,17.20
2018-10-06T10:42:45.737Z,17.20
2018-10-06T10:45:14.046Z,17.30
2018-10-06T10:47:42.252Z,17.40
2018-10-06T10:50:10.469Z,17.50
2018-10-06T10:52:38.760Z,17.60
2018-10-06T10:55:07.282Z,17.60
2018-10-06T10:57:35.608Z,17.60
2018-10-06T11:00:04.071Z,17.80
2018-10-06T11:02:32.156Z,17.80
2018-10-06T11:05:00.423Z,17.90
2018-10-06T11:07:29.089Z,18.00
2018-10-06T11:09:58.146Z,18.10
2018-10-06T11:12:27.101Z,18.10
2018-10-06T11:14:55.694Z,18.10
2018-10-06T11:17:23.991Z,18.20
2018-10-06T11:19:52.311Z,18.20
2018-10-06T11:22:22.081Z,18.30
2018-10-06T11:24:58.246Z,18.30
2018-10-06T11:27:26.530Z,18.40
2018-10-06T11:29:54.868Z,18.50
2018-10-06T11:32:23.125Z,18.50
2018-10-06T11:34:52.385Z,18.60
2018-10-06T11:37:20.913Z,18.60
2018-10-06T11:39:49.956Z,18.70
2018-10-06T11:42:18.302Z,18.70
2018-10-06T11:44:46.548Z,18.80
2018-10-06T11:47:15.553Z,18.80
2018-10-06T11:49:43.892Z,18.90
2018-10-06T11:52:12.712Z,18.90
2018-10-06T11:54:41.399Z,18.90
2018-10-06T11:57:09.575Z,18.90
2018-10-06T11:59:38.152Z,19.00
2018-10-06T12:02:07.006Z,19.00
2018-10-06T12:04:35.290Z,19.00
2018-10-06T12:07:03.999Z,19.00
2018-10-06T12:09:32.444Z,19.00
2018-10-06T12:12:00.736Z,19.10
2018-10-06T12:14:29.033Z,19.10
2018-10-06T12:16:57.345Z,19.20
2018-10-06T12:19:25.690Z,19.20
2018-10-06T12:21:55.124Z,19.20
2018-10-06T12:24:24.491Z,19.30
2018-10-06T12:26:52.952Z,19.30
2018-10-06T12:29:25.665Z,19.30
2018-10-06T12:31:55.068Z,19.30
2018-10-06T12:34:23.457Z,19.40
2018-10-06T12:37:06.199Z,19.40
2018-10-06T12:39:35.909Z,19.40
2018-10-06T12:42:04.928Z,19.50
2018-10-06T12:44:36.461Z,19.50
2018-10-06T12:47:05.357Z,19.50
2018-10-06T12:49:34.279Z,19.50
2018-10-06T12:52:06.082Z,19.60
2018-10-06T12:54:35.053Z,19.60
2018-10-06T12:57:04.099Z,19.60
2018-10-06T12:59:36.014Z,19.60
2018-10-06T13:02:04.975Z,19.70
2018-10-06T13:07:15.903Z,19.80
2018-10-06T13:09:52.780Z,19.80
2018-10-06T13:12:24.768Z,19.70
2018-10-06T13:14:56.532Z,19.70
2018-10-06T13:17:28.424Z,19.80
2018-10-06T13:19:58.748Z,19.80
2018-10-06T13:22:28.552Z,19.80
2018-10-06T13:24:57.297Z,19.80
2018-10-06T13:27:27.083Z,19.80
2018-10-06T13:29:57.283Z,19.80
2018-10-06T13:32:26.206Z,19.80
2018-10-06T13:34:55.633Z,19.80
2018-10-06T13:37:25.860Z,19.80
2018-10-06T13:39:55.088Z,19.80
2018-10-06T13:45:10.911Z,19.90
2018-10-06T13:47:40.512Z,19.80
2018-10-06T13:50:12.318Z,19.80
2018-10-06T13:52:43.799Z,19.80
2018-10-06T13:55:14.499Z,19.80
2018-10-06T13:57:42.919Z,19.90
2018-10-06T14:00:12.810Z,19.90
2018-10-06T14:02:43.346Z,19.90
2018-10-06T14:05:21.914Z,19.80
2018-10-06T14:07:53.063Z,19.90
2018-10-06T14:10:27.151Z,19.90
2018-10-06T14:12:56.495Z,19.90
2018-10-06T14:15:25.846Z,19.90
2018-10-06T14:17:56.065Z,19.90
2018-10-06T14:20:24.850Z,19.90
2018-10-06T14:22:53.921Z,19.90
2018-10-06T14:25:24.561Z,19.90
2018-10-06T14:27:56.397Z,19.80
2018-10-06T14:30:26.016Z,19.80
2018-10-06T14:32:57.664Z,19.90
2018-10-06T14:35:32.554Z,19.80
2018-10-06T14:38:02.182Z,19.80
2018-10-06T14:40:34.595Z,19.80
2018-10-06T14:43:05.607Z,19.80
2018-10-06T14:45:35.134Z,19.70
2018-10-06T14:48:06.985Z,19.70
2018-10-06T14:50:37.547Z,19.70
2018-10-06T14:53:06.304Z,19.60
2018-10-06T14:55:35.102Z,19.70
2018-10-06T14:58:14.015Z,19.60
2018-10-06T15:00:43.216Z,19.60
2018-10-06T15:03:12.298Z,19.60
2018-10-06T15:05:41.963Z,19.50
2018-10-06T15:08:12.907Z,19.60
2018-10-06T15:10:42.456Z,19.50
2018-10-06T15:13:13.606Z,19.50
2018-10-06T15:15:43.457Z,19.50
2018-10-06T15:18:12.202Z,19.60
2018-10-06T15:20:40.803Z,19.60
2018-10-06T15:23:09.357Z,19.70
2018-10-06T15:25:37.868Z,19.70
2018-10-06T15:28:07.690Z,19.80
2018-10-06T15:30:37.593Z,19.80
2018-10-06T15:33:06.513Z,19.80
2018-10-06T15:35:36.306Z,19.70
2018-10-06T15:38:04.793Z,19.70
2018-10-06T15:40:33.251Z,19.60
2018-10-06T15:43:03.928Z,19.50
2018-10-06T15:45:33.288Z,19.40
2018-10-06T15:48:02.292Z,19.30
2018-10-06T15:50:31.197Z,19.30
2018-10-06T15:52:59.660Z,19.20
2018-10-06T15:55:28.339Z,19.10
2018-10-06T15:57:56.737Z,19.00
2018-10-06T16:00:25.511Z,19.00
2018-10-06T16:02:54.207Z,18.80
2018-10-06T16:05:23.207Z,18.80
2018-10-06T16:07:52.089Z,18.70
2018-10-06T16:10:21.398Z,18.60
2018-10-06T16:12:50.122Z,18.60
2018-10-06T16:15:18.472Z,18.50
2018-10-06T16:17:46.818Z,18.40
2018-10-06T16:20:15.308Z,18.40
2018-10-06T16:22:44.428Z,18.30
2018-10-06T16:25:13.802Z,18.20
2018-10-06T16:27:42.432Z,18.10
2018-10-06T16:30:10.904Z,18.00
2018-10-06T16:32:39.178Z,18.00
2018-10-06T16:35:07.565Z,17.90
2018-10-06T16:37:36.112Z,17.80
2018-10-06T16:40:04.610Z,17.80
2018-10-06T16:42:34.143Z,17.70
2018-10-06T16:45:02.525Z,17.50
2018-10-06T16:47:31.119Z,17.50
2018-10-06T16:49:59.431Z,17.40
2018-10-06T16:52:27.790Z,17.50
2018-10-06T16:54:56.330Z,17.40
2018-10-06T16:57:24.651Z,17.40
2018-10-06T16:59:53.015Z,17.50
2018-10-06T17:02:21.435Z,17.50
2018-10-06T17:04:49.898Z,17.50
2018-10-06T17:07:18.421Z,17.50
2018-10-06T17:09:46.829Z,17.50
2018-10-06T17:12:15.460Z,17.40
2018-10-06T17:14:43.692Z,17.40
2018-10-06T17:17:12.833Z,17.30
2018-10-06T17:19:41.176Z,17.20
2018-10-06T17:22:09.544Z,17.10
2018-10-06T17:24:37.858Z,17.10
2018-10-06T17:27:06.452Z,16.90
2018-10-06T17:29:34.745Z,16.80
2018-10-06T17:32:03.166Z,16.80
2018-10-06T17:34:31.418Z,16.70
2018-10-06T17:36:59.741Z,16.60
2018-10-06T17:39:28.041Z,16.50
2018-10-06T17:41:56.298Z,16.50
2018-10-06T17:44:24.716Z,16.50
2018-10-06T17:46:53.088Z,16.50
2018-10-06T17:49:21.398Z,16.50
2018-10-06T17:51:49.841Z,16.40
2018-10-06T17:54:18.220Z,16.40
2018-10-06T17:56:46.695Z,16.40
2018-10-06T17:59:14.986Z,16.40
2018-10-06T18:01:43.307Z,16.30
2018-10-06T18:04:12.089Z,16.30
2018-10-06T18:06:40.496Z,16.30
2018-10-06T18:09:09.052Z,16.20
2018-10-06T18:11:37.432Z,16.30
2018-10-06T18:14:05.720Z,16.20
2018-10-06T18:16:34.170Z,16.20
2018-10-06T18:19:02.575Z,16.20
2018-10-06T18:21:30.993Z,16.20
2018-10-06T18:23:59.208Z,16.20
2018-10-06T18:26:27.427Z,16.20
2018-10-06T18:28:55.720Z,16.20
2018-10-06T18:31:24.103Z,16.10
2018-10-06T18:33:52.501Z,16.10
2018-10-06T18:36:20.836Z,16.00
2018-10-06T18:38:49.001Z,16.00
2018-10-06T18:41:17.386Z,15.90
2018-10-06T18:43:45.741Z,15.80
2018-10-06T18:46:14.014Z,15.80
2018-10-06T18:48:42.313Z,15.80
2018-10-06T18:51:10.670Z,15.70
2018-10-06T18:53:38.930Z,15.70
2018-10-06T18:56:07.294Z,15.60
2018-10-06T18:58:35.600Z,15.60
2018-10-06T19:01:04.827Z,15.50
2018-10-06T19:03:33.260Z,15.50
2018-10-06T19:06:01.662Z,15.40
2018-10-06T19:08:31.625Z,15.30
2018-10-06T19:11:00.011Z,15.30
2018-10-06T19:13:28.530Z,15.20
2018-10-06T19:15:56.717Z,15.20
2018-10-06T19:18:25.014Z,15.10
2018-10-06T19:20:53.472Z,15.10
2018-10-06T19:23:21.795Z,15.00
2018-10-06T19:25:50.214Z,15.00
2018-10-06T19:28:18.477Z,14.90
2018-10-06T19:30:46.728Z,14.90
2018-10-06T19:33:15.013Z,14.80
2018-10-06T19:35:43.268Z,14.80
2018-10-06T19:38:11.541Z,14.80
2018-10-06T19:40:39.827Z,14.70
2018-10-06T19:43:08.064Z,14.70
2018-10-06T19:45:36.361Z,14.60
2018-10-06T19:48:04.649Z,14.60
2018-10-06T19:50:32.863Z,14.50
2018-10-06T19:53:01.149Z,14.50
2018-10-06T19:55:29.732Z,14.50
2018-10-06T19:57:58.187Z,14.40
2018-10-06T20:00:26.468Z,14.40
2018-10-06T20:02:54.684Z,14.40
2018-10-06T20:05:22.963Z,14.30
2018-10-06T20:07:51.232Z,14.30
2018-10-06T20:10:19.492Z,14.20
2018-10-06T20:12:47.786Z,14.20
2018-10-06T20:15:16.162Z,14.20
2018-10-06T20:17:44.526Z,14.10
2018-10-06T20:20:12.767Z,14.10
2018-10-06T20:22:41.205Z,14.10
2018-10-06T20:25:09.408Z,14.00
2018-10-06T20:27:37.597Z,14.00
2018-10-06T20:30:05.992Z,14.00
2018-10-06T20:32:34.296Z,14.00
2018-10-06T20:35:02.749Z,13.90
2018-10-06T20:37:31.032Z,13.90
2018-10-06T20:39:59.506Z,13.90
2018-10-06T20:42:27.711Z,13.90
2018-10-06T20:44:56.012Z,13.90
2018-10-06T20:47:24.270Z,13.80
2018-10-06T20:49:52.577Z,13.80
2018-10-06T20:52:20.963Z,13.80
2018-10-06T20:54:49.205Z,13.80
2018-10-06T20:57:17.441Z,13.70
2018-10-06T20:59:45.771Z,13.70
2018-10-06T21:02:14.221Z,13.70
2018-10-06T21:04:42.585Z,13.70
2018-10-06T21:07:10.869Z,13.70
2018-10-06T21:09:39.096Z,13.70
2018-10-06T21:12:07.384Z,13.60
2018-10-06T21:14:35.668Z,13.60
2018-10-06T21:17:03.963Z,13.60
2018-10-06T21:19:32.321Z,13.60
2018-10-06T21:22:00.601Z,13.60
2018-10-06T21:24:28.885Z,13.60
2018-10-06T21:26:57.150Z,13.60
2018-10-06T21:29:25.585Z,13.60
2018-10-06T21:31:53.849Z,13.60
2018-10-06T21:34:22.110Z,13.60
2018-10-06T21:36:50.806Z,13.50
2018-10-06T21:39:19.062Z,13.50
2018-10-06T21:41:47.310Z,13.40
2018-10-06T21:44:15.561Z,13.40
2018-10-06T21:46:43.832Z,13.50
2018-10-06T21:49:12.110Z,13.40
2018-10-06T21:51:40.402Z,13.40
2018-10-06T21:54:08.628Z,13.30
2018-10-06T21:56:36.923Z,13.30
2018-10-06T21:59:05.240Z,13.30
2018-10-06T22:01:34.937Z,13.30
2018-10-06T22:04:03.245Z,13.30
2018-10-06T22:06:31.469Z,13.40
2018-10-06T22:08:59.903Z,13.40
2018-10-06T22:11:28.073Z,13.50
2018-10-06T22:13:56.339Z,13.60
2018-10-06T22:16:24.752Z,13.60
2018-10-06T22:18:53.064Z,13.70
2018-10-06T22:21:21.351Z,13.90
2018-10-06T22:23:49.662Z,14.00
2018-10-06T22:26:17.973Z,14.00
2018-10-06T22:28:46.266Z,14.10
2018-10-06T22:31:14.490Z,14.10
2018-10-06T22:33:42.830Z,14.20
2018-10-06T22:36:11.113Z,14.20
2018-10-06T22:38:39.417Z,14.30
2018-10-06T22:41:07.691Z,14.30
2018-10-06T22:43:35.984Z,14.40
2018-10-06T22:46:04.181Z,14.40
2018-10-06T22:48:32.447Z,14.50
2018-10-06T22:51:00.903Z,14.50
2018-10-06T22:53:29.197Z,14.50
2018-10-06T22:55:57.432Z,14.60
2018-10-06T22:58:25.846Z,14.60
2018-10-06T23:00:54.229Z,14.70
2018-10-06T23:03:22.505Z,14.80
2018-10-06T23:05:57.914Z,14.80
2018-10-06T23:08:28.862Z,14.90
2018-10-06T23:10:57.411Z,14.90
2018-10-06T23:13:25.860Z,15.00
2018-10-06T23:15:54.461Z,15.10
2018-10-06T23:18:23.697Z,15.10
2018-10-06T23:20:52.028Z,15.00
2018-10-06T23:23:20.512Z,15.00
2018-10-06T23:25:49.022Z,15.10
2018-10-06T23:28:19.091Z,15.00
2018-10-06T23:30:47.817Z,15.00
2018-10-06T23:33:16.189Z,15.00
2018-10-06T23:35:45.004Z,15.00
2018-10-06T23:38:13.908Z,14.90
2018-10-06T23:40:42.824Z,14.90
2018-10-06T23:43:11.488Z,14.90
2018-10-06T23:45:39.797Z,14.80
2018-10-06T23:48:08.200Z,14.80
2018-10-06T23:50:39.374Z,14.80
2018-10-06T23:53:30.109Z,14.70
2018-10-06T23:56:10.201Z,14.70
2018-10-06T23:58:40.780Z,14.60
